Latest Weather Observations for Yarrawonga

IDV60801

Issued at 8:32 am EST Wednesday 22 September 2021 (issued every 10 minutes, with the page automatically refreshed every 10 minutes)

About weather observations | Map of weather stations | Latest weather observations for VIC | Other Formats
Station Details ID: 081124 Name: YARRAWONGA Lat: -36.03 Lon: 146.03 Height: 128.9 m
Data from the previous 72 hours. | See also: Recent months at Yarrawonga
Date/Time
EST
Temp
°C
App
Temp
°C
Dew
Point
°C
Rel
Hum
%
Delta-T
°C
Wind Press
QNH
hPa
Press
MSL
hPa
Rain since
9am
mm
Dir  Spd
km/h
Gust
km/h
Spd
kts
Gust
kts
22/08:30am 9.5 5.8 7.9 90 0.8 WSW 17 24 9 13 1026.7 1026.8 0.0
22/08:00am 8.0 4.4 6.8 92 0.6 WSW 15 19 8 10 1026.7 1026.8 0.0
22/07:30am 7.0 4.1 6.6 97 0.2 WSW 11 15 6 8 1026.7 1026.8 0.0
22/07:00am 5.7 2.2 5.4 98 0.1 W 13 15 7 8 1026.5 1026.6 0.0
22/06:30am 4.6 1.3 4.5 99 0.0 W 11 13 6 7 1026.1 1026.2 0.0
22/06:00am 4.0 1.3 3.7 98 0.1 W 7 9 4 5 1025.9 1026.0 0.0
22/05:30am 5.5 3.1 5.1 97 0.2 W 7 9 4 5 1025.6 1025.7 0.0
22/05:00am 5.5 2.7 5.2 98 0.1 W 9 11 5 6 1025.6 1025.7 0.0
22/04:30am 5.2 1.9 4.8 97 0.2 WSW 11 13 6 7 1025.5 1025.6 0.0
22/04:00am 5.1 2.5 4.4 95 0.3 W 7 9 4 5 1025.5 1025.6 0.0
22/03:30am 4.7 1.8 4.6 99 0.0 W 9 9 5 5 1025.6 1025.7 0.0
22/03:00am 2.6 -0.7 2.5 99 0.0 SW 9 11 5 6 1025.7 1025.8 0.0
22/02:30am 3.0 -0.2 2.9 99 0.0 SW 9 9 5 5 1026.0 1026.1 0.0
22/02:00am 3.4 0.2 3.1 98 0.1 SW 9 11 5 6 1026.3 1026.4 0.0
22/01:30am 3.8 1.0 3.2 96 0.2 WSW 7 9 4 5 1026.6 1026.7 0.0
22/01:00am 4.3 0.5 3.9 97 0.2 WSW 13 15 7 8 1027.2 1027.3 0.0
22/12:30am 4.3 1.5 3.4 94 0.4 WSW 7 9 4 5 1027.4 1027.5 0.0
22/12:00am 4.4 1.9 3.5 94 0.4 WSW 6 6 3 3 1027.5 1027.6 0.0
 
Date/Time
EST
Temp
°C
App
Temp
°C
Dew
Point
°C
Rel
Hum
%
Delta-T
°C
Wind Press
QNH
hPa
Press
MSL
hPa
Rain since
9am
mm
Dir  Spd
km/h
Gust
km/h
Spd
kts
Gust
kts
21/11:30pm 4.5 2.7 3.5 93 0.4 WSW 2 4 1 2 1027.5 1027.6 0.0
21/11:00pm 4.3 1.1 3.3 93 0.4 WSW 9 11 5 6 1027.6 1027.7 0.0
21/10:30pm 5.4 3.7 4.1 91 0.6 SSW 2 7 1 4 1027.7 1027.8 0.0
21/10:00pm 5.5 3.8 3.8 89 0.7 ESE 2 6 1 3 1027.7 1027.8 0.0
21/09:30pm 6.9 3.5 3.9 81 1.3 SSW 11 13 6 7 1027.6 1027.7 0.0
21/09:00pm 7.2 3.5 4.2 81 1.3 SW 13 17 7 9 1027.4 1027.5 0.0
21/08:30pm 7.2 3.4 4.0 80 1.4 SSW 13 17 7 9 1027.3 1027.4 0.0
21/08:00pm 7.3 3.8 3.7 78 1.5 SSW 11 13 6 7 1027.0 1027.1 0.0
21/07:30pm 7.3 4.7 4.1 80 1.4 SSW 7 11 4 6 1026.8 1026.9 0.0
21/07:00pm 7.8 4.0 4.0 77 1.6 SSW 13 19 7 10 1026.2 1026.3 0.0
21/06:30pm 9.2 4.7 4.0 70 2.3 SW 17 20 9 11 1025.5 1025.6 0.0
21/06:00pm 10.1 5.6 4.3 67 2.6 SW 17 20 9 11 1025.3 1025.4 0.0
21/05:30pm 11.6 6.5 4.3 61 3.3 SW 20 28 11 15 1025.3 1025.4 0.0
21/05:00pm 12.3 6.3 3.5 55 3.9 SW 24 41 13 22 1025.1 1025.2 0.0
21/04:30pm 12.6 6.2 3.3 53 4.2 SW 26 39 14 21 1024.9 1025.0 0.0
21/04:00pm 12.3 6.6 4.8 60 3.4 SW 24 39 13 21 1024.9 1025.0 0.0
21/03:30pm 13.4 7.0 5.3 58 3.8 SW 28 37 15 20 1024.8 1024.9 0.0
21/03:00pm 12.7 4.5 4.9 59 3.6 SW 37 52 20 28 1024.9 1025.0 0.0
21/02:51pm 12.7 5.4 4.4 57 3.8 SW 32 52 17 28 1024.7 1024.8 0.0
21/02:30pm 14.2 6.8 4.2 51 4.6 SW 32 41 17 22 1024.6 1024.7 0.0
21/02:00pm 14.0 7.1 4.6 53 4.4 SW 30 37 16 20 1024.5 1024.6 0.0
21/01:30pm 14.4 7.6 5.0 53 4.4 SW 30 41 16 22 1024.5 1024.6 0.0
21/01:00pm 13.0 7.4 5.2 59 3.6 SW 24 33 13 18 1024.3 1024.3 0.0
21/12:30pm 13.1 8.0 5.8 61 3.5 SW 22 33 12 18 1024.4 1024.5 0.0
21/12:00pm 12.0 6.0 5.4 64 3.1 SW 26 37 14 20 1024.7 1024.8 0.0
21/11:30am 11.0 3.4 4.0 62 3.1 SW 33 44 18 24 1024.7 1024.8 0.0
21/11:00am 12.3 4.1 4.8 60 3.4 SSW 37 50 20 27 1024.3 1024.3 0.0
21/10:32am 10.7 4.0 5.5 70 2.4 SW 30 50 16 27 1024.2 1024.2 0.0
21/10:30am 10.7 4.0 5.7 71 2.3 SW 30 41 16 22 1024.2 1024.2 0.0
21/10:00am 9.4 2.3 5.6 77 1.7 SW 32 43 17 23 1024.4 1024.5 0.0
21/09:30am 9.3 2.7 5.9 79 1.6 WSW 30 41 16 22 1023.8 1023.8 0.0
21/09:00am 7.8 1.8 5.4 85 1.1 WSW 26 37 14 20 1023.3 1023.3 0.8
21/08:30am 6.4 0.7 5.0 91 0.6 WSW 24 30 13 16 1023.1 1023.1 0.8
21/08:00am 4.8 -0.7 3.9 94 0.4 WSW 22 30 12 16 1022.7 1022.8 0.8
21/07:30am 3.8 -2.2 3.4 97 0.2 WSW 24 32 13 17 1022.5 1022.6 0.8
21/07:00am 2.9 -2.4 2.8 99 0.0 WSW 20 26 11 14 1021.7 1021.8 0.8
21/06:30am 2.0 -2.5 1.9 99 0.0 WSW 15 20 8 11 1021.3 1021.4 0.8
21/06:00am 1.9 -2.7 1.8 99 0.0 WSW 15 20 8 11 1020.7 1020.8 0.8
21/05:30am 2.1 -2.4 2.0 99 0.0 WSW 15 20 8 11 1020.1 1020.2 0.8
21/05:00am 2.1 -2.8 2.0 99 0.0 WSW 17 24 9 13 1019.6 1019.7 0.8
21/04:30am 2.0 -2.5 1.9 99 0.0 WSW 15 20 8 11 1019.4 1019.5 0.8
21/04:00am 2.0 -2.5 1.9 99 0.0 W 15 17 8 9 1019.3 1019.4 0.8
21/03:30am 2.4 -2.8 2.3 99 0.0 WSW 19 24 10 13 1019.0 1019.1 0.8
21/03:00am 2.5 -3.3 2.4 99 0.0 WSW 22 28 12 15 1018.6 1018.7 0.8
21/02:30am 2.4 -2.8 2.3 99 0.0 WSW 19 24 10 13 1018.3 1018.4 0.8
21/02:00am 2.6 -2.2 2.5 99 0.0 WSW 17 22 9 12 1018.3 1018.4 0.8
21/01:30am 2.8 -2.4 2.7 99 0.0 WSW 19 22 10 12 1018.6 1018.7 0.6
21/01:00am 3.2 -1.9 2.8 97 0.2 WSW 19 26 10 14 1018.5 1018.6 0.6
21/12:30am 3.7 -2.0 3.0 95 0.3 WSW 22 28 12 15 1018.4 1018.5 0.6
21/12:00am 3.7 -1.6 3.1 96 0.2 WSW 20 28 11 15 1018.0 1018.1 0.6
 
Date/Time
EST
Temp
°C
App
Temp
°C
Dew
Point
°C
Rel
Hum
%
Delta-T
°C
Wind Press
QNH
hPa
Press
MSL
hPa
Rain since
9am
mm
Dir  Spd
km/h
Gust
km/h
Spd
kts
Gust
kts
20/11:30pm 3.7 -1.4 3.0 95 0.3 W 19 28 10 15 1017.8 1017.9 0.6
20/11:00pm 3.5 -1.2 2.9 96 0.2 W 17 22 9 12 1017.5 1017.5 0.6
20/10:30pm 3.8 -0.9 3.2 96 0.2 W 17 20 9 11 1017.3 1017.3 0.6
20/10:00pm 4.2 -0.5 3.3 94 0.4 W 17 20 9 11 1017.1 1017.1 0.6
20/09:30pm 4.8 0.6 3.9 94 0.4 W 15 20 8 11 1016.9 1016.9 0.6
20/09:00pm 4.9 0.7 3.9 93 0.4 W 15 19 8 10 1016.8 1016.8 0.6
20/08:30pm 4.9 0.8 4.3 96 0.3 W 15 22 8 12 1016.6 1016.6 0.6
20/08:00pm 5.2 1.6 4.8 97 0.2 W 13 15 7 8 1016.4 1016.4 0.6
20/07:30pm 5.5 2.3 4.9 96 0.3 W 11 13 6 7 1016.0 1016.0 0.6
20/07:00pm 6.0 2.0 4.8 92 0.5 SW 15 19 8 10 1015.7 1015.7 0.6
20/06:30pm 7.4 -0.3 5.2 86 1.0 WSW 35 43 19 23 1015.7 1015.7 0.2
20/06:12pm 9.5 3.7 4.5 71 2.2 WSW 24 43 13 23 1015.1 1015.1 0.2
20/06:00pm 10.2 5.8 5.0 70 2.4 W 17 24 9 13 1014.2 1014.3 0.2
20/05:30pm 10.3 4.9 4.7 68 2.5 WSW 22 33 12 18 1013.8 1013.9 0.2
20/05:04pm 12.1 4.3 2.6 52 4.2 W 33 56 18 30 1013.4 1013.5 0.2
20/05:00pm 12.2 5.0 2.9 53 4.1 W 30 43 16 23 1013.3 1013.4 0.2
20/04:30pm 12.2 5.6 4.4 59 3.6 WSW 28 41 15 22 1012.9 1013.0 0.2
20/04:08pm 14.4 7.6 2.9 46 5.2 WNW 28 48 15 26 1012.7 1012.8 0.2
20/04:00pm 14.1 8.7 4.7 53 4.4 WNW 22 35 12 19 1012.7 1012.8 0.2
20/03:30pm 14.8 6.7 3.0 45 5.3 W 35 50 19 27 1012.5 1012.6 0.2
20/03:00pm 14.8 8.3 2.4 43 5.5 W 26 43 14 23 1012.2 1012.3 0.2
20/02:30pm 14.8 7.8 3.9 48 5.0 W 30 39 16 21 1012.5 1012.6 0.2
20/02:00pm 14.1 7.4 3.8 50 4.7 W 28 41 15 22 1012.8 1012.9 0.2
20/01:30pm 12.4 7.3 7.7 73 2.3 W 24 37 13 20 1013.3 1013.4 0.2
20/01:00pm 14.2 7.7 4.5 52 4.5 W 28 41 15 22 1013.5 1013.6 0.0
20/12:30pm 14.2 8.7 5.8 57 4.0 W 24 35 13 19 1013.9 1014.0 0.0
20/12:00pm 13.8 6.5 4.7 54 4.2 W 32 41 17 22 1014.1 1014.2 0.0
20/11:30am 12.6 8.3 6.9 68 2.8 W 19 26 10 14 1014.4 1014.5 0.0
20/11:00am 12.4 6.7 6.5 67 2.8 W 26 35 14 19 1014.4 1014.5 0.0
20/10:30am 11.9 6.4 7.4 74 2.2 W 26 35 14 19 1014.6 1014.7 0.0
20/10:00am 11.6 7.1 8.5 81 1.5 W 22 33 12 18 1014.7 1014.8 0.0
20/09:30am 10.9 6.6 8.0 82 1.4 WNW 20 30 11 16 1014.7 1014.8 0.0
20/09:00am 10.3 6.2 7.9 85 1.2 WNW 19 26 10 14 1014.8 1014.9 0.2
20/08:30am 9.7 5.5 8.1 90 0.8 W 20 32 11 17 1014.8 1014.9 0.0
20/08:00am 10.5 7.2 9.4 93 0.6 WSW 17 28 9 15 1014.8 1014.9 0.0
20/07:30am 11.2 6.0 8.8 85 1.2 WSW 26 35 14 19 1014.3 1014.4 0.0
20/07:00am 12.0 6.3 8.5 79 1.7 WSW 28 39 15 21 1013.9 1014.0 0.0
20/06:30am 12.1 8.2 8.8 80 1.7 W 19 26 10 14 1013.6 1013.7 0.0
20/06:00am 12.2 7.4 8.9 80 1.7 WSW 24 35 13 19 1013.3 1013.4 0.0
20/05:30am 13.0 9.7 6.6 65 3.1 WNW 13 24 7 13 1012.8 1012.9 0.0
20/05:00am 11.8 9.3 6.5 70 2.5 NNW 9 13 5 7 1012.7 1012.8 0.0
20/04:30am 11.8 8.7 7.1 73 2.3 NNW 13 20 7 11 1012.5 1012.6 0.0
20/04:00am 12.2 9.0 6.9 70 2.6 NNW 13 15 7 8 1012.6 1012.7 0.0
20/03:30am 11.4 8.1 6.5 72 2.3 NNW 13 17 7 9 1012.8 1012.9 0.0
20/03:00am 11.1 7.8 6.6 74 2.1 N 13 17 7 9 1013.1 1013.2 0.0
20/02:30am 11.2 8.3 6.7 74 2.1 N 11 15 6 8 1013.6 1013.7 0.0
20/02:00am 11.2 9.0 7.7 79 1.7 N 9 9 5 5 1014.0 1014.1 0.0
20/01:30am 12.3 9.5 7.0 70 2.6 NNW 11 15 6 8 1014.7 1014.8 0.0
20/01:00am 13.8 10.5 4.7 54 4.2 NW 11 19 6 10 1015.1 1015.1 0.0
20/12:30am 14.2 10.4 3.9 50 4.7 NW 13 19 7 10 1015.4 1015.4 0.0
20/12:00am 14.5 11.0 3.6 48 5.0 NW 11 19 6 10 1015.4 1015.4 0.0
 
Date/Time
EST
Temp
°C
App
Temp
°C
Dew
Point
°C
Rel
Hum
%
Delta-T
°C
Wind Press
QNH
hPa
Press
MSL
hPa
Rain since
9am
mm
Dir  Spd
km/h
Gust
km/h
Spd
kts
Gust
kts
19/11:30pm 13.0 10.1 4.4 56 4.0 NW 9 15 5 8 1015.6 1015.6 0.0
19/11:00pm 12.1 9.0 5.7 65 3.0 NNW 11 15 6 8 1015.6 1015.6 0.0
19/10:30pm 11.6 8.2 5.9 68 2.7 N 13 17 7 9 1015.7 1015.7 0.0
19/10:00pm 11.0 8.3 7.3 78 1.8 N 11 13 6 7 1015.9 1015.9 0.0
19/09:30pm 10.4 8.1 7.3 81 1.5 N 9 11 5 6 1016.0 1016.0 0.0
19/09:00pm 10.6 8.1 6.7 77 1.8 N 9 11 5 6 1016.1 1016.1 0.0
19/08:30pm 10.6 8.2 6.9 78 1.8 N 9 9 5 5 1016.4 1016.4 0.0
19/08:00pm 11.7 9.7 7.0 73 2.3 N 7 9 4 5 1016.6 1016.6 0.0
19/07:30pm 11.5 9.5 7.2 75 2.1 N 7 7 4 4 1016.6 1016.6 0.0
19/07:00pm 12.3 10.3 7.0 70 2.6 N 7 9 4 5 1016.5 1016.5 0.0
19/06:30pm 12.6 10.4 6.4 66 3.0 N 7 9 4 5 1016.5 1016.5 0.0
19/06:00pm 13.9 11.4 6.5 61 3.6 N 9 13 5 7 1016.5 1016.5 0.0
19/05:30pm 16.8 13.7 5.7 48 5.4 NNW 11 15 6 8 1016.7 1016.7 0.0
19/05:00pm 17.8 13.6 4.0 40 6.5 NW 15 24 8 13 1017.0 1017.0 0.0
19/04:30pm 18.3 13.3 3.8 38 6.9 NW 19 30 10 16 1017.2 1017.2 0.0
19/04:00pm 19.0 14.0 4.4 38 7.0 NW 20 33 11 18 1017.3 1017.3 0.0
19/03:30pm 18.6 13.5 4.0 38 7.0 NW 20 30 11 16 1017.6 1017.6 0.0
19/03:00pm 18.0 11.8 4.2 40 6.6 NW 26 41 14 22 1018.0 1018.1 0.0
19/02:30pm 19.0 14.5 6.2 43 6.4 NW 19 24 10 13 1018.3 1018.4 0.0
19/02:00pm 18.0 13.2 5.6 44 6.1 NW 20 30 11 16 1018.9 1019.0 0.0
19/01:30pm 17.6 12.0 5.2 44 6.0 NW 24 35 13 19 1019.3 1019.4 0.0
19/01:00pm 16.7 12.1 5.6 48 5.4 WNW 19 26 10 14 1019.9 1020.0 0.0
19/12:30pm 16.2 11.5 6.1 51 4.9 NW 20 39 11 21 1020.5 1020.6 0.0
19/12:00pm 16.4 11.6 5.7 49 5.2 NW 20 32 11 17 1020.8 1020.9 0.0
19/11:30am 16.4 13.2 6.8 53 4.8 NW 13 24 7 13 1021.1 1021.2 0.0
19/11:00am 15.2 11.8 7.7 61 3.7 NNW 15 26 8 14 1021.6 1021.7 0.0
19/10:30am 14.7 10.7 6.8 59 3.9 NNW 17 22 9 12 1022.1 1022.2 0.0
19/10:00am 13.1 9.8 6.5 64 3.2 NNW 13 19 7 10 1022.3 1022.4 0.0
19/09:30am 12.9 9.6 6.3 64 3.2 NNW 13 17 7 9 1022.4 1022.5 0.0
19/09:00am 11.8 8.6 6.9 72 2.3 NNW 13 17 7 9 1022.3 1022.4 0.0

Other formats

Comma delimited format used in spreadsheet applications
http://www.bom.gov.au/fwo/IDV60801/IDV60801.94862.axf

JavaScript Object Notation format (JSON) in row-major order
http://www.bom.gov.au/fwo/IDV60801/IDV60801.94862.json

Data quality

Most of these data are generated automatically and are frequently updated. Quality checks on data are not normally performed. It is possible for incorrect values to appear. Refer to information at About Latest Weather Observations and please check the disclaimer before using these data.